Главная страница
METAR-TAF:

METAR-TAF

Аэропорты :

Свальбард

Лонгйир, Норвегия

широта: 78-15N, долгота: 015-28E, высота над уровнем моря: 2 м

Текущие метеонаблюдения

Эта сводка был подготовлена 38 минут назад, в 01:50 UTC
Ветер 10 Узел от юго-юго-восточный
Температура 4°C
Влажность 75%
Давление 991 hPa
Видимость 10 км и более
Отдельные облака на высоте 3000 фута
Рассеянная облачность на высоте 4500 фута

METAR: ENSB 160150Z 16010KT 9999 SCT030 BKN045 04/M00 Q0991 RMK WIND 1400FT 13009KT

Время: 04:28 (02:28 UTC)

Прогноз

Прогноз действительный с 16-го 00 UTC до 16-го 24 UTC
Ветер 8 Узел от юго-восточный
Видимость 10 км и более
небольшая облачность на высоте 1000 фута
Рассеянная облачность на высоте 2000 фута
временами
С 16-го 12 UTC до 16-го 24 UTC
Ветер 20 Узел от западный-юго-западный
Видимость: 4000 м
на высоте 1200 фута
ливневые дожди, снег

TAF: ENSB 1600/1624 14008KT 9999 FEW010 BKN020 TEMPO 1612/1624 24020KT 4000 SHRASN VV012

Метеонаблюдения и прогнозы для более 4000 аэропортов (сводки METAR и TAF).

Имеющиеся станции представлены на карте желтыми и красными точками.

Чтобы увидеть название станции, наведите на нее мышь.

Затем щелкните, чтобы увидеть метеонаблюдения и метеопрогнозы.

Управление картой: чтобы увеличить масштаб, щелкните зеленые кнопки с черным крестиком; чтобы уменьшить масштаб, щелкните зеленую кнопку с тире; для просмотра соседних карт щелкайте зеленые стрелки.


METAR-TAF: